METAR Data
IDs: Format: Raw Decoded Include TAF

Data at: 0805 UTC 01 Aug 2021

EDDN 010750Z 21003KT 160V290 9999 -RA BKN008 15/13 Q1010 TEMPO SCT008